Time;durP1;ratioP1;P1;durP2;ratioP2;P2;SDS_P1;SDS_P2;PMS_P1;PMS_P2;Temp;Humidity;BMP_temperature;BMP_pressure;BME280_temperature;BME280_humidity;BME280_pressure;Samples;Min_cycle;Max_cycle;Signal;HPM_P1;HPM_P2
2022/04/23 00:01:16;;;;;;;11.93;10.53;;;7.80;99.90;;;;;;5086523;28;20194;-61
2022/04/23 00:03:41;;;;;;;12.37;11.13;;;7.80;99.90;;;;;;5084152;28;20338;-62
2022/04/23 00:06:07;;;;;;;13.40;12.00;;;7.80;99.90;;;;;;5086042;28;20558;-62
2022/04/23 00:08:33;;;;;;;11.83;10.73;;;7.70;99.90;;;;;;5084556;28;20228;-61
2022/04/23 00:10:59;;;;;;;14.17;12.77;;;7.60;99.90;;;;;;5077534;28;20254;-61
2022/04/23 00:13:25;;;;;;;13.00;11.07;;;7.50;99.90;;;;;;5082714;28;20221;-63
2022/04/23 00:15:51;;;;;;;14.80;12.50;;;7.50;99.90;;;;;;5084978;28;20246;-59
2022/04/23 00:18:18;;;;;;;12.90;11.60;;;7.50;99.90;;;;;;5083674;28;20250;-63
2022/04/23 00:20:46;;;;;;;13.83;12.40;;;7.50;99.90;;;;;;5083574;28;20682;-61
2022/04/23 00:23:12;;;;;;;13.93;12.53;;;7.50;99.90;;;;;;5085636;28;20243;-62
2022/04/23 00:25:39;;;;;;;13.17;11.83;;;7.50;99.90;;;;;;5083303;28;20304;-62
2022/04/23 00:28:05;;;;;;;13.80;12.47;;;7.50;99.90;;;;;;5084318;28;20304;-61
2022/04/23 00:30:30;;;;;;;15.73;13.13;;;7.50;99.90;;;;;;5083288;28;20193;-62
2022/04/23 00:33:02;;;;;;;13.27;11.47;;;7.40;99.90;;;;;;5084948;28;20211;-61
2022/04/23 00:35:28;;;;;;;12.87;11.67;;;7.30;99.90;;;;;;5083134;28;20232;-61
2022/04/23 00:37:54;;;;;;;15.47;13.80;;;7.40;99.90;;;;;;5085503;28;20201;-67
2022/04/23 00:40:21;;;;;;;15.23;13.23;;;7.40;99.90;;;;;;5083688;28;20583;-58
2022/04/23 00:42:51;;;;;;;14.53;13.03;;;7.30;99.90;;;;;;5085333;28;20190;-67
2022/04/23 00:45:18;;;;;;;14.03;12.73;;;7.30;99.90;;;;;;5072440;28;20266;-64
2022/04/23 00:47:43;;;;;;;17.67;12.83;;;7.30;99.90;;;;;;5085469;28;20540;-62
2022/04/23 00:50:10;;;;;;;15.53;13.93;;;7.20;99.90;;;;;;5083097;28;20212;-63
2022/04/23 00:52:36;;;;;;;14.90;13.47;;;7.10;99.90;;;;;;5083020;28;20209;-63
2022/04/23 00:55:04;;;;;;;15.30;13.70;;;7.00;99.90;;;;;;5083336;28;20246;-64
2022/04/23 00:57:30;;;;;;;17.67;13.87;;;6.90;99.90;;;;;;5085777;28;20250;-64
2022/04/23 00:59:56;;;;;;;14.17;12.77;;;6.80;99.90;;;;;;5083381;28;20216;-63
2022/04/23 01:02:22;;;;;;;15.00;13.43;;;6.80;99.90;;;;;;5085520;28;20625;-64
2022/04/23 01:04:48;;;;;;;15.13;13.70;;;6.80;99.90;;;;;;5083305;28;20232;-63
2022/04/23 01:07:14;;;;;;;17.80;14.07;;;6.80;99.90;;;;;;5084940;28;20181;-64
2022/04/23 01:09:44;;;;;;;18.67;14.77;;;6.80;99.90;;;;;;5083233;28;20289;-64
2022/04/23 01:12:11;;;;;;;17.37;13.90;;;6.70;99.90;;;;;;5085150;28;20210;-64
2022/04/23 01:14:59;;;;;;;19.00;15.50;;;6.60;99.90;;;;;;5083005;28;20202;-64
2022/04/23 01:17:25;;;;;;;19.13;14.40;;;6.60;99.90;;;;;;5083686;28;20204;-64
2022/04/23 01:19:50;;;;;;;16.90;15.30;;;6.50;99.90;;;;;;5082919;28;20189;-64
2022/04/23 01:22:16;;;;;;;16.50;14.80;;;6.50;99.90;;;;;;5085274;28;20206;-64
2022/04/23 01:24:43;;;;;;;18.03;15.77;;;6.40;99.90;;;;;;5082756;28;20280;-65
2022/04/23 01:27:10;;;;;;;16.57;14.70;;;6.40;99.90;;;;;;5084238;28;20253;-64
2022/04/23 01:29:36;;;;;;;17.23;15.00;;;6.30;99.90;;;;;;5082866;28;20645;-64
2022/04/23 01:32:05;;;;;;;22.50;18.87;;;6.30;99.90;;;;;;5085107;28;20202;-68
2022/04/23 01:34:31;;;;;;;18.37;16.30;;;6.20;99.90;;;;;;5082824;28;20200;-68
2022/04/23 01:36:56;;;;;;;18.77;14.80;;;6.20;99.90;;;;;;5084906;28;20178;-69
2022/04/23 01:39:22;;;;;;;15.00;13.50;;;6.30;99.90;;;;;;5082894;28;20193;-67
2022/04/23 01:41:48;;;;;;;15.70;14.03;;;6.30;99.90;;;;;;5085199;28;20206;-68
2022/04/23 01:44:14;;;;;;;17.77;15.13;;;6.30;99.90;;;;;;5083878;28;20669;-68
2022/04/23 01:46:39;;;;;;;16.27;14.57;;;6.30;99.90;;;;;;5071791;28;20235;-68
2022/04/23 01:49:05;;;;;;;18.53;15.30;;;6.20;99.90;;;;;;5084633;28;20198;-67
2022/04/23 01:51:30;;;;;;;16.87;15.07;;;6.20;99.90;;;;;;5083091;28;20240;-68
2022/04/23 01:53:56;;;;;;;15.80;14.20;;;6.10;99.90;;;;;;5084250;28;20215;-67
2022/04/23 01:56:22;;;;;;;16.93;13.77;;;6.10;99.90;;;;;;5082672;28;20193;-68
2022/04/23 01:58:47;;;;;;;15.23;13.33;;;6.10;99.90;;;;;;5084701;28;20555;-67
2022/04/23 02:01:13;;;;;;;16.67;14.90;;;6.10;99.90;;;;;;5082482;28;20216;-67
2022/04/23 02:03:38;;;;;;;13.83;12.53;;;6.00;99.90;;;;;;5084474;28;20197;-67
2022/04/23 02:06:04;;;;;;;16.23;14.63;;;6.00;99.90;;;;;;5082495;28;20220;-67
2022/04/23 02:08:30;;;;;;;18.37;14.13;;;6.00;99.90;;;;;;5084172;28;20196;-69
2022/04/23 02:10:55;;;;;;;16.20;14.60;;;6.00;99.90;;;;;;5082556;28;20297;-69
2022/04/23 02:13:21;;;;;;;16.47;14.20;;;6.10;99.90;;;;;;5084641;28;20218;-69
2022/04/23 02:15:46;;;;;;;15.87;14.27;;;6.10;99.90;;;;;;5075779;28;20197;-68
2022/04/23 02:18:14;;;;;;;15.30;13.83;;;6.20;99.90;;;;;;5084823;28;20216;-68
2022/04/23 02:20:39;;;;;;;15.67;14.17;;;6.20;99.90;;;;;;5086259;28;20201;-68
2022/04/23 02:23:06;;;;;;;15.83;13.47;;;6.20;99.90;;;;;;5088479;28;20806;-67
2022/04/23 02:25:35;;;;;;;15.03;13.57;;;6.10;99.90;;;;;;5086340;28;20208;-70
2022/04/23 02:28:01;;;;;;;16.67;12.57;;;6.10;99.90;;;;;;5081701;28;20744;-69
2022/04/23 02:30:26;;;;;;;14.07;12.63;;;6.20;99.90;;;;;;5084542;28;20208;-67
2022/04/23 02:32:52;;;;;;;16.50;14.83;;;6.20;99.90;;;;;;5087193;28;20308;-68
2022/04/23 02:35:20;;;;;;;15.70;14.20;;;6.20;99.90;;;;;;5081473;28;20190;-68
2022/04/23 02:37:46;;;;;;;15.13;13.57;;;6.10;99.90;;;;;;5085875;28;20615;-69
2022/04/23 02:40:12;;;;;;;16.00;14.03;;;6.20;99.90;;;;;;5078083;28;20194;-67
2022/04/23 02:42:39;;;;;;;14.23;12.83;;;6.30;99.90;;;;;;5086139;28;20250;-68
2022/04/23 02:45:06;;;;;;;15.70;13.90;;;6.30;99.90;;;;;;5087799;28;20543;-67
2022/04/23 02:47:46;;;;;;;16.47;14.73;;;6.30;99.90;;;;;;5085949;28;20202;-67
2022/04/23 02:50:13;;;;;;;18.13;14.80;;;6.30;99.90;;;;;;5088079;28;20536;-67
2022/04/23 02:52:43;;;;;;;14.50;13.07;;;6.30;99.90;;;;;;5085894;28;20969;-66
2022/04/23 02:55:11;;;;;;;15.40;13.90;;;6.20;99.90;;;;;;5087475;28;20536;-67
2022/04/23 02:57:37;;;;;;;15.07;13.47;;;6.20;99.90;;;;;;5086054;28;20233;-67
2022/04/23 03:00:05;;;;;;;15.53;13.53;;;6.10;99.90;;;;;;5087128;28;20189;-66
2022/04/23 03:02:33;;;;;;;16.67;13.97;;;6.00;99.90;;;;;;5085309;28;20205;-69
2022/04/23 03:04:58;;;;;;;14.90;13.40;;;6.00;99.90;;;;;;5087099;28;20202;-69
2022/04/23 03:07:23;;;;;;;17.10;14.27;;;5.90;99.90;;;;;;5085407;28;20265;-71
2022/04/23 03:09:49;;;;;;;16.43;14.70;;;5.90;99.90;;;;;;5088037;28;20186;-68
2022/04/23 03:12:15;;;;;;;16.67;14.97;;;5.90;99.90;;;;;;5085337;28;20212;-67
2022/04/23 03:14:40;;;;;;;16.17;14.47;;;5.90;99.90;;;;;;5087921;28;20178;-67
2022/04/23 03:17:06;;;;;;;16.70;15.00;;;5.90;99.90;;;;;;5066780;28;20196;-67
2022/04/23 03:19:31;;;;;;;18.30;16.27;;;5.80;99.90;;;;;;5087568;28;20456;-67
2022/04/23 03:21:57;;;;;;;18.77;16.70;;;5.80;99.90;;;;;;5085050;28;20284;-67
2022/04/23 03:24:23;;;;;;;17.70;15.80;;;5.70;99.90;;;;;;5087517;28;20280;-67
2022/04/23 03:26:48;;;;;;;16.10;14.40;;;5.70;99.90;;;;;;5082353;28;20350;-67
2022/04/23 03:29:14;;;;;;;16.27;14.60;;;5.70;99.90;;;;;;5087035;28;20189;-67
2022/04/23 03:31:39;;;;;;;17.20;14.67;;;5.70;99.90;;;;;;5087507;28;20655;-67
2022/04/23 03:34:05;;;;;;;19.47;14.67;;;5.60;99.90;;;;;;5084999;28;20221;-65
2022/04/23 03:36:30;;;;;;;16.67;14.47;;;5.60;99.90;;;;;;5087157;28;20182;-66
2022/04/23 03:38:56;;;;;;;16.10;14.50;;;5.50;99.90;;;;;;5085386;28;20202;-67
2022/04/23 03:41:23;;;;;;;16.80;14.60;;;5.50;99.90;;;;;;5086782;28;20193;-69
2022/04/23 03:43:48;;;;;;;18.77;14.50;;;5.40;99.90;;;;;;5085503;28;20212;-67
2022/04/23 03:46:15;;;;;;;19.77;15.77;;;5.40;99.90;;;;;;5086541;28;20209;-67
2022/04/23 03:48:40;;;;;;;17.80;15.10;;;5.50;99.90;;;;;;5084921;28;20706;-67
2022/04/23 03:51:06;;;;;;;16.90;14.80;;;5.50;99.90;;;;;;5086272;28;20190;-67
2022/04/23 03:53:31;;;;;;;18.97;16.53;;;5.50;99.90;;;;;;5085086;28;20956;-67
2022/04/23 03:55:57;;;;;;;19.93;15.87;;;5.60;99.90;;;;;;5087226;28;20557;-68
2022/04/23 03:58:22;;;;;;;21.87;18.80;;;5.50;99.90;;;;;;5084618;28;20193;-68
2022/04/23 04:00:48;;;;;;;24.70;20.03;;;5.50;99.90;;;;;;5086741;28;20186;-69
2022/04/23 04:03:13;;;;;;;23.60;18.23;;;5.50;99.90;;;;;;5084536;28;20201;-68
2022/04/23 04:05:39;;;;;;;22.37;18.87;;;5.50;99.90;;;;;;5086472;28;20284;-67
2022/04/23 04:08:04;;;;;;;22.33;19.17;;;5.40;99.90;;;;;;5084547;28;20202;-67
2022/04/23 04:10:30;;;;;;;17.53;15.63;;;5.40;99.90;;;;;;5086473;28;20679;-68
2022/04/23 04:12:55;;;;;;;21.23;15.80;;;5.40;99.90;;;;;;5078294;28;20718;-68
2022/04/23 04:15:21;;;;;;;18.30;16.07;;;5.40;99.90;;;;;;5086113;28;20258;-69
2022/04/23 04:17:51;;;;;;;17.67;15.63;;;5.40;99.90;;;;;;5084002;28;20620;-68
2022/04/23 04:20:17;;;;;;;17.63;15.73;;;5.40;99.90;;;;;;5086249;28;20243;-68
2022/04/23 04:22:43;;;;;;;20.87;16.70;;;5.40;99.90;;;;;;5072866;28;20205;-68
2022/04/23 04:25:09;;;;;;;17.60;15.77;;;5.40;99.90;;;;;;5085891;28;20230;-68
2022/04/23 04:27:35;;;;;;;18.60;16.10;;;5.50;99.90;;;;;;5071716;28;20243;-68
2022/04/23 04:30:03;;;;;;;17.30;15.47;;;5.50;99.90;;;;;;5086031;28;20659;-68
2022/04/23 04:32:28;;;;;;;17.77;15.97;;;5.50;99.90;;;;;;5083319;28;20222;-68
2022/04/23 04:34:54;;;;;;;20.73;16.87;;;5.50;99.90;;;;;;5085977;28;20238;-68
2022/04/23 04:37:19;;;;;;;16.43;14.73;;;5.50;99.90;;;;;;5083858;28;20250;-68
2022/04/23 04:39:45;;;;;;;17.70;15.83;;;5.50;99.90;;;;;;5085790;28;20213;-69
2022/04/23 04:42:11;;;;;;;18.37;16.13;;;5.60;99.90;;;;;;5083383;28;20201;-68
2022/04/23 04:44:38;;;;;;;18.83;16.37;;;5.70;99.90;;;;;;5086051;28;20193;-69
2022/04/23 04:47:04;;;;;;;19.33;15.70;;;5.70;99.90;;;;;;5083386;28;20885;-68
2022/04/23 04:49:30;;;;;;;17.83;14.53;;;5.70;99.90;;;;;;5086008;28;20185;-66
2022/04/23 04:51:56;;;;;;;16.97;14.43;;;5.70;99.90;;;;;;5083532;28;20561;-67
2022/04/23 04:54:22;;;;;;;20.13;15.30;;;5.80;99.90;;;;;;5086007;28;20182;-67
2022/04/23 04:56:48;;;;;;;17.03;14.57;;;5.90;99.90;;;;;;5068414;28;20285;-66
2022/04/23 04:59:14;;;;;;;17.33;15.10;;;6.00;99.90;;;;;;5085548;28;20668;-67
2022/04/23 05:01:40;;;;;;;20.57;14.83;;;6.10;99.90;;;;;;5084575;28;20264;-67
2022/04/23 05:04:05;;;;;;;19.80;15.10;;;6.30;99.90;;;;;;5083495;28;20305;-67
2022/04/23 05:06:31;;;;;;;17.77;14.90;;;6.40;99.90;;;;;;5080342;28;20279;-65
2022/04/23 05:08:56;;;;;;;21.23;15.67;;;6.40;99.90;;;;;;5082749;28;20659;-64
2022/04/23 05:11:22;;;;;;;19.27;14.23;;;6.30;99.90;;;;;;5074150;28;20208;-65
2022/04/23 05:13:47;;;;;;;17.27;14.30;;;6.40;99.90;;;;;;5083304;28;20733;-65
2022/04/23 05:16:13;;;;;;;16.17;13.73;;;6.40;99.90;;;;;;5084618;28;20538;-66
2022/04/23 05:18:39;;;;;;;18.23;14.47;;;6.60;99.90;;;;;;5083897;28;20280;-65
2022/04/23 05:21:04;;;;;;;17.07;13.37;;;6.70;99.90;;;;;;5084831;28;20205;-66
2022/04/23 05:23:30;;;;;;;16.50;13.57;;;6.90;99.90;;;;;;5083422;28;20620;-67
2022/04/23 05:25:56;;;;;;;15.40;13.20;;;7.00;99.90;;;;;;5084880;28;20197;-65
2022/04/23 05:28:22;;;;;;;16.63;14.63;;;7.00;99.90;;;;;;5083119;28;20244;-66
2022/04/23 05:30:48;;;;;;;16.43;13.50;;;7.00;99.90;;;;;;5084763;28;20678;-66
2022/04/23 05:33:13;;;;;;;14.60;13.03;;;7.10;99.90;;;;;;5083123;28;20263;-65
2022/04/23 05:35:39;;;;;;;14.70;12.80;;;7.20;99.90;;;;;;5085170;28;20221;-65
2022/04/23 05:38:05;;;;;;;15.70;12.97;;;7.30;99.90;;;;;;5083217;28;20209;-65
2022/04/23 05:40:31;;;;;;;16.67;13.37;;;7.40;99.90;;;;;;5084668;28;20615;-67
2022/04/23 05:43:00;;;;;;;14.83;12.37;;;7.50;99.90;;;;;;5082990;28;20240;-66
2022/04/23 05:45:26;;;;;;;20.80;13.90;;;7.70;99.90;;;;;;5084733;28;20193;-65
2022/04/23 05:47:52;;;;;;;17.50;13.00;;;7.80;99.90;;;;;;5076285;28;20213;-65
2022/04/23 05:50:18;;;;;;;16.63;12.23;;;7.80;99.90;;;;;;5084918;28;20247;-65
2022/04/23 05:52:43;;;;;;;15.00;11.97;;;7.80;99.90;;;;;;5082434;28;20266;-65
2022/04/23 05:55:10;;;;;;;15.37;13.27;;;7.90;99.90;;;;;;5074649;28;20193;-66
2022/04/23 05:57:36;;;;;;;18.23;13.90;;;7.90;99.90;;;;;;5082873;28;20231;-64
2022/04/23 06:00:07;;;;;;;15.93;13.00;;;7.90;99.90;;;;;;5085350;28;20221;-66
2022/04/23 06:02:32;;;;;;;14.90;12.93;;;8.00;99.90;;;;;;5070102;28;20205;-66
2022/04/23 06:04:59;;;;;;;15.00;13.40;;;8.20;99.90;;;;;;5084786;28;20280;-66
2022/04/23 06:07:24;;;;;;;18.13;13.60;;;8.40;99.90;;;;;;5082771;28;20193;-66
2022/04/23 06:09:50;;;;;;;15.27;12.70;;;8.60;99.90;;;;;;5084844;28;20640;-66
2022/04/23 06:12:16;;;;;;;18.40;13.73;;;8.70;99.90;;;;;;5083109;28;20229;-66
2022/04/23 06:14:41;;;;;;;13.57;11.80;;;8.70;99.90;;;;;;5084933;28;20781;-66
2022/04/23 06:17:08;;;;;;;15.73;12.27;;;9.00;99.90;;;;;;5082571;28;20198;-66
2022/04/23 06:19:34;;;;;;;15.23;12.97;;;9.10;99.90;;;;;;5084729;28;20406;-65
2022/04/23 06:22:00;;;;;;;14.40;11.47;;;9.00;99.90;;;;;;5082532;28;20651;-65
2022/04/23 06:24:26;;;;;;;15.43;11.97;;;9.30;99.90;;;;;;5084536;28;20170;-65
2022/04/23 06:26:52;;;;;;;20.83;13.00;;;9.50;99.90;;;;;;5082432;28;20304;-65
2022/04/23 06:29:17;;;;;;;24.13;14.40;;;9.60;99.90;;;;;;5084532;28;20268;-65
2022/04/23 06:31:43;;;;;;;22.87;16.03;;;9.60;99.90;;;;;;5084559;28;20228;-66
2022/04/23 06:34:09;;;;;;;18.40;13.57;;;9.80;99.90;;;;;;5084741;28;20225;-65
2022/04/23 06:36:36;;;;;;;13.03;10.87;;;9.80;99.90;;;;;;5084682;28;20193;-65
2022/04/23 06:39:05;;;;;;;16.77;11.13;;;9.90;99.90;;;;;;5082283;28;20281;-65
2022/04/23 06:41:30;;;;;;;12.17;10.37;;;10.00;99.90;;;;;;5084557;28;20280;-66
2022/04/23 06:43:55;;;;;;;13.43;10.47;;;10.00;99.90;;;;;;5082879;28;20206;-65
2022/04/23 06:46:21;;;;;;;11.70;9.40;;;10.20;99.90;;;;;;5084859;28;21140;-65
2022/04/23 06:48:46;;;;;;;11.87;10.77;;;10.20;99.90;;;;;;5082639;28;20202;-65
2022/04/23 06:51:12;;;;;;;13.60;9.47;;;10.20;99.90;;;;;;5077129;28;20213;-65
2022/04/23 06:53:37;;;;;;;10.97;9.00;;;10.40;99.90;;;;;;5082224;28;21086;-67
2022/04/23 06:56:04;;;;;;;11.73;9.33;;;10.50;99.90;;;;;;5084112;28;20356;-66
2022/04/23 06:58:30;;;;;;;11.77;9.63;;;10.50;99.90;;;;;;5077611;28;20221;-65
2022/04/23 07:00:55;;;;;;;15.97;9.20;;;10.60;99.90;;;;;;5084062;28;20206;-65
2022/04/23 07:03:21;;;;;;;9.93;9.00;;;10.70;99.90;;;;;;5079548;28;20289;-65
2022/04/23 07:05:47;;;;;;;11.03;8.27;;;10.70;99.40;;;;;;5087744;28;20287;-64
2022/04/23 07:08:12;;;;;;;9.23;8.20;;;11.00;99.10;;;;;;5085792;28;20207;-65
2022/04/23 07:10:38;;;;;;;8.80;7.77;;;11.00;99.00;;;;;;5087835;28;20199;-66
2022/04/23 07:13:04;;;;;;;11.50;8.30;;;11.10;98.80;;;;;;5076994;28;20354;-65
2022/04/23 07:15:30;;;;;;;9.67;8.73;;;11.20;98.50;;;;;;5087594;28;20233;-65
2022/04/23 07:17:56;;;;;;;9.33;8.43;;;11.30;98.60;;;;;;5085136;28;20228;-65
2022/04/23 07:20:22;;;;;;;8.97;8.17;;;11.30;98.10;;;;;;5087399;28;20625;-67
2022/04/23 07:25:36;;;;;;;10.53;8.33;;;11.40;97.80;;;;;;5074015;28;20354;-66
2022/04/23 07:28:02;;;;;;;12.40;8.80;;;11.40;98.10;;;;;;5085856;28;20225;-66
2022/04/23 07:30:29;;;;;;;8.03;7.27;;;11.40;98.40;;;;;;5087279;28;20290;-67
2022/04/23 07:32:55;;;;;;;9.37;7.80;;;11.60;97.70;;;;;;5085480;28;20283;-66
2022/04/23 07:38:14;;;;;;;9.97;6.93;;;11.80;97.30;;;;;;5080325;28;20363;-67
2022/04/23 07:40:40;;;;;;;9.83;7.53;;;12.00;96.60;;;;;;5086654;28;20192;-67
2022/04/23 07:43:12;;;;;;;9.77;7.13;;;12.00;96.50;;;;;;5085291;28;20212;-67
2022/04/23 07:45:38;;;;;;;7.97;7.20;;;11.90;97.10;;;;;;5087233;28;20199;-67
2022/04/23 07:48:08;;;;;;;9.00;7.43;;;12.00;96.60;;;;;;5085075;28;20296;-66
2022/04/23 07:50:34;;;;;;;9.07;8.17;;;12.00;96.50;;;;;;5077500;28;20203;-67
2022/04/23 07:53:00;;;;;;;8.50;7.70;;;12.20;96.40;;;;;;5084979;28;20224;-67
2022/04/23 07:55:26;;;;;;;9.13;8.10;;;12.30;96.20;;;;;;5086745;28;20668;-67
2022/04/23 07:57:52;;;;;;;10.50;9.50;;;12.20;96.10;;;;;;5085184;28;20204;-67
2022/04/23 08:00:18;;;;;;;9.53;8.53;;;12.20;96.50;;;;;;5086908;28;20192;-67
2022/04/23 08:02:43;;;;;;;9.97;8.47;;;12.30;96.40;;;;;;5084689;28;20206;-67
2022/04/23 08:05:12;;;;;;;9.13;8.23;;;12.40;96.20;;;;;;5086681;28;20206;-66
2022/04/23 08:07:39;;;;;;;8.73;7.83;;;12.60;96.10;;;;;;5072139;28;20254;-67
2022/04/23 08:10:06;;;;;;;9.63;8.40;;;12.70;96.20;;;;;;5086853;28;20278;-66
2022/04/23 08:12:34;;;;;;;10.33;9.20;;;12.60;96.20;;;;;;5084638;28;20229;-68
2022/04/23 08:15:00;;;;;;;10.00;8.93;;;12.60;96.70;;;;;;5086812;28;20186;-67
2022/04/23 08:17:26;;;;;;;9.47;8.53;;;12.60;96.30;;;;;;5084323;28;20208;-66
2022/04/23 08:19:51;;;;;;;10.87;8.20;;;12.70;96.10;;;;;;5086844;28;20186;-66
2022/04/23 08:22:17;;;;;;;9.53;8.63;;;12.80;96.30;;;;;;5084881;28;20208;-66
2022/04/23 08:24:43;;;;;;;9.90;8.90;;;12.90;95.80;;;;;;5086701;28;20196;-67
2022/04/23 08:27:08;;;;;;;9.80;8.80;;;13.00;96.30;;;;;;5084352;28;20385;-66
2022/04/23 08:32:18;;;;;;;15.17;9.10;;;13.10;95.90;;;;;;5069296;28;20289;-65
2022/04/23 08:34:45;;;;;;;9.80;8.80;;;13.10;95.40;;;;;;5086815;28;20698;-66
2022/04/23 08:37:12;;;;;;;8.27;7.47;;;13.10;95.60;;;;;;5080279;28;20236;-66
2022/04/23 08:39:39;;;;;;;9.00;8.17;;;13.30;95.60;;;;;;5086594;28;20194;-66
2022/04/23 08:42:09;;;;;;;12.60;8.90;;;13.30;95.60;;;;;;5083992;28;20197;-66
2022/04/23 08:44:35;;;;;;;8.40;7.60;;;13.40;95.20;;;;;;5086299;28;20200;-66
2022/04/23 08:47:01;;;;;;;9.40;8.50;;;13.50;95.00;;;;;;5084172;28;20661;-65
2022/04/23 08:49:29;;;;;;;11.30;8.20;;;13.80;94.90;;;;;;5086347;28;20246;-66
2022/04/23 08:52:09;;;;;;;9.67;8.57;;;13.80;95.10;;;;;;5081233;28;20279;-65
2022/04/23 08:54:35;;;;;;;9.53;8.63;;;13.80;94.30;;;;;;5086327;28;20223;-66
2022/04/23 08:57:00;;;;;;;9.50;8.23;;;14.00;94.40;;;;;;5083447;28;20213;-67
2022/04/23 08:59:27;;;;;;;12.33;8.87;;;14.00;94.40;;;;;;5085868;28;20274;-66
2022/04/23 09:01:52;;;;;;;14.30;8.00;;;14.10;94.50;;;;;;5083785;28;20200;-66
2022/04/23 09:04:18;;;;;;;15.40;8.30;;;14.10;93.00;;;;;;5085905;28;20189;-66
2022/04/23 09:06:46;;;;;;;6.97;6.37;;;14.10;93.40;;;;;;5081488;28;20204;-65
2022/04/23 09:09:23;;;;;;;7.57;6.87;;;14.40;92.90;;;;;;5071171;28;20964;-67
2022/04/23 09:11:56;;;;;;;9.07;7.20;;;14.40;92.20;;;;;;5081973;28;20193;-67
2022/04/23 09:14:23;;;;;;;6.83;6.23;;;14.70;92.10;;;;;;5085841;28;20213;-66
2022/04/23 09:25:04;;;;;;;7.00;6.30;;;14.70;89.10;;;;;;5086558;28;20192;-66
2022/04/23 09:27:34;;;;;;;5.50;5.10;;;14.70;88.60;;;;;;5083409;28;20222;-64
2022/04/23 09:30:18;;;;;;;5.83;5.40;;;14.90;87.10;;;;;;5085951;28;20721;-64
2022/04/23 09:32:57;;;;;;;5.70;5.20;;;14.90;87.10;;;;;;5079141;28;20299;-64
2022/04/23 09:35:23;;;;;;;6.03;5.53;;;14.90;87.60;;;;;;5085567;28;20756;-64
2022/04/23 09:40:33;;;;;;;5.37;4.87;;;15.50;86.50;;;;;;5085194;28;20180;-64
2022/04/23 09:43:01;;;;;;;5.50;5.10;;;15.90;85.00;;;;;;5083251;28;20201;-65
2022/04/23 09:45:29;;;;;;;8.23;5.33;;;16.00;82.60;;;;;;5086350;28;20193;-64
2022/04/23 09:48:15;;;;;;;5.50;5.00;;;15.90;83.20;;;;;;5083202;28;20201;-64
2022/04/23 09:50:42;;;;;;;5.97;4.97;;;15.90;80.00;;;;;;5080763;28;20235;-63
2022/04/23 09:53:12;;;;;;;5.53;5.03;;;16.20;81.10;;;;;;5078996;28;20886;-63
2022/04/23 09:55:38;;;;;;;5.77;5.27;;;16.10;78.40;;;;;;5084511;28;20196;-61
2022/04/23 09:58:08;;;;;;;5.50;5.00;;;16.10;78.60;;;;;;5082092;28;20355;-61
2022/04/23 10:00:39;;;;;;;5.70;4.57;;;16.20;76.90;;;;;;5084590;28;20710;-61
2022/04/23 10:03:06;;;;;;;4.77;4.37;;;16.20;75.40;;;;;;5082259;28;20282;-61
2022/04/23 10:05:40;;;;;;;5.57;5.07;;;16.00;74.50;;;;;;5084580;28;20190;-61
2022/04/23 10:08:11;;;;;;;5.73;5.23;;;15.90;75.40;;;;;;5080633;28;20208;-61
2022/04/23 10:10:43;;;;;;;6.57;6.07;;;16.00;75.10;;;;;;5083777;28;20197;-62
2022/04/23 10:13:10;;;;;;;6.20;5.70;;;16.20;78.80;;;;;;5082456;28;20217;-61
2022/04/23 10:15:38;;;;;;;6.23;5.67;;;16.00;74.00;;;;;;5083962;28;20189;-62
2022/04/23 10:18:07;;;;;;;6.07;5.20;;;16.00;74.80;;;;;;5081938;28;20566;-63
2022/04/23 10:20:34;;;;;;;6.03;5.47;;;16.00;75.70;;;;;;5083428;28;20696;-63
2022/04/23 10:23:17;;;;;;;6.77;6.17;;;16.20;74.00;;;;;;5082234;28;20645;-63
2022/04/23 10:25:49;;;;;;;7.40;5.27;;;15.90;73.00;;;;;;5084731;28;20205;-63
2022/04/23 10:28:19;;;;;;;5.70;5.20;;;16.10;74.70;;;;;;5082419;28;20727;-63
2022/04/23 10:30:48;;;;;;;5.10;4.70;;;16.30;74.30;;;;;;5084644;28;20197;-63
2022/04/23 10:33:27;;;;;;;6.43;5.30;;;16.70;74.50;;;;;;5081778;28;20209;-63
2022/04/23 10:36:06;;;;;;;6.63;5.53;;;17.00;73.10;;;;;;5081505;28;20190;-63
2022/04/23 10:38:31;;;;;;;5.73;5.27;;;17.10;71.60;;;;;;5082437;28;20178;-63
2022/04/23 10:40:57;;;;;;;6.10;5.60;;;16.90;70.30;;;;;;5085356;28;20255;-63
2022/04/23 10:43:23;;;;;;;5.23;4.83;;;16.80;73.80;;;;;;5087858;28;20181;-60
2022/04/23 10:45:48;;;;;;;4.80;4.40;;;16.90;71.80;;;;;;5088125;28;20470;-64
2022/04/23 10:48:22;;;;;;;5.20;4.80;;;17.10;70.50;;;;;;5085800;28;20201;-64
2022/04/23 10:51:15;;;;;;;8.27;5.53;;;17.40;69.40;;;;;;5087935;28;20570;-63
2022/04/23 10:53:46;;;;;;;5.93;5.43;;;17.60;67.80;;;;;;5079629;28;20744;-63
2022/04/23 10:56:13;;;;;;;5.00;4.50;;;17.70;67.30;;;;;;5078487;28;20626;-62
2022/04/23 10:58:40;;;;;;;6.70;5.30;;;18.00;67.10;;;;;;5088255;28;20928;-65
2022/04/23 11:01:29;;;;;;;6.30;5.27;;;18.20;66.00;;;;;;5085556;28;20194;-64
2022/04/23 11:03:54;;;;;;;4.90;4.40;;;18.80;66.40;;;;;;5073167;28;20190;-62
2022/04/23 11:12:33;;;;;;;5.10;4.60;;;19.30;61.20;;;;;;5081391;28;20281;-63
2022/04/23 11:15:00;;;;;;;4.77;4.27;;;19.00;59.40;;;;;;5085622;28;20260;-65
2022/04/23 11:17:30;;;;;;;5.57;4.50;;;19.30;60.00;;;;;;5084596;28;20203;-65
2022/04/23 11:19:55;;;;;;;4.87;4.47;;;19.40;60.90;;;;;;5086804;28;20247;-64
2022/04/23 11:22:22;;;;;;;5.13;4.63;;;19.80;59.60;;;;;;5085273;28;20663;-64
2022/04/23 11:24:49;;;;;;;5.90;5.40;;;20.50;58.30;;;;;;5087108;28;20192;-66
2022/04/23 11:27:25;;;;;;;5.00;4.60;;;20.90;57.30;;;;;;5084248;28;20279;-64
2022/04/23 11:29:54;;;;;;;5.03;4.63;;;20.60;56.60;;;;;;5087648;28;20212;-65
2022/04/23 11:32:27;;;;;;;5.03;4.63;;;20.90;58.30;;;;;;5085246;28;20204;-66
2022/04/23 11:35:07;;;;;;;4.60;4.30;;;21.40;57.60;;;;;;5087049;28;20193;-64
2022/04/23 11:37:34;;;;;;;4.17;3.87;;;21.80;55.20;;;;;;5083741;28;20684;-65
2022/04/23 11:40:17;;;;;;;5.53;5.13;;;21.90;53.10;;;;;;5087118;28;20201;-65
2022/04/23 11:42:44;;;;;;;8.07;4.80;;;21.50;54.90;;;;;;5085100;28;20232;-67
2022/04/23 11:45:12;;;;;;;5.00;4.40;;;21.80;54.00;;;;;;5086867;28;20204;-66
2022/04/23 11:47:38;;;;;;;5.03;4.63;;;21.90;52.80;;;;;;5085231;28;20266;-65
2022/04/23 11:50:10;;;;;;;4.87;4.40;;;21.60;52.80;;;;;;5086481;28;20188;-66
2022/04/23 11:52:36;;;;;;;4.37;3.97;;;22.30;54.80;;;;;;5080300;28;20567;-66
2022/04/23 11:55:02;;;;;;;6.90;5.27;;;22.70;51.20;;;;;;5068787;28;20189;-66
2022/04/23 11:57:28;;;;;;;4.87;4.47;;;22.80;49.40;;;;;;5084882;28;20215;-67
2022/04/23 12:00:00;;;;;;;5.10;4.27;;;22.00;49.60;;;;;;5086786;28;20848;-65
2022/04/23 12:02:28;;;;;;;4.40;3.97;;;21.60;50.40;;;;;;5077990;28;20270;-65
2022/04/23 12:04:55;;;;;;;6.63;4.97;;;21.00;49.80;;;;;;5083881;28;20274;-65
2022/04/23 12:07:22;;;;;;;4.30;4.00;;;20.60;50.10;;;;;;5084362;28;20215;-65
2022/04/23 12:09:55;;;;;;;6.13;4.20;;;20.10;51.50;;;;;;5086632;28;20404;-65
2022/04/23 12:12:25;;;;;;;5.20;4.80;;;19.80;51.90;;;;;;5076512;28;20201;-63
2022/04/23 12:14:53;;;;;;;4.87;4.43;;;20.30;52.00;;;;;;5086045;28;20199;-65
2022/04/23 12:17:23;;;;;;;5.60;5.03;;;19.80;52.30;;;;;;5084314;28;21051;-64
2022/04/23 12:19:50;;;;;;;5.13;4.73;;;19.10;53.70;;;;;;5078544;28;20238;-64
2022/04/23 12:23:14;;;;;;;5.30;4.90;;;18.80;53.50;;;;;;5084428;28;20206;-65
2022/04/23 12:25:39;;;;;;;4.67;4.10;;;18.50;54.20;;;;;;5040204;28;20210;-64
2022/04/23 12:42:12;;;;;;;5.00;4.47;;;20.80;50.10;;;;;;5084392;28;20214;-64
2022/04/23 12:44:42;;;;;;;4.13;3.83;;;20.20;50.60;;;;;;5062802;28;20200;-64
2022/04/23 12:47:09;;;;;;;4.93;4.43;;;20.30;52.50;;;;;;5083405;28;20200;-61
2022/04/23 12:49:49;;;;;;;4.10;3.80;;;21.60;50.40;;;;;;5085778;28;20193;-62
2022/04/23 12:52:27;;;;;;;4.40;4.00;;;22.20;49.20;;;;;;5083562;28;20741;-62
2022/04/23 12:55:14;;;;;;;4.43;4.03;;;22.70;47.50;;;;;;5070377;28;20275;-63
2022/04/23 12:57:45;;;;;;;4.37;3.97;;;23.00;46.00;;;;;;5083820;28;20212;-64
2022/04/23 13:00:14;;;;;;;4.60;4.23;;;23.60;45.60;;;;;;5084939;28;20185;-66
2022/04/23 13:02:40;;;;;;;4.53;4.17;;;23.70;43.60;;;;;;5082716;28;20251;-66
2022/04/23 13:05:08;;;;;;;3.93;3.63;;;24.40;45.30;;;;;;5085439;28;20201;-66
2022/04/23 13:10:18;;;;;;;4.77;4.37;;;23.00;44.70;;;;;;5085751;28;20194;-62
2022/04/23 13:12:44;;;;;;;4.60;4.30;;;21.50;45.40;;;;;;5080156;28;20221;-62
2022/04/23 13:15:09;;;;;;;4.37;3.77;;;21.10;45.60;;;;;;5082947;28;20203;-63
2022/04/23 13:17:38;;;;;;;3.97;3.67;;;21.30;46.50;;;;;;5080166;28;20220;-62
2022/04/23 13:20:08;;;;;;;4.70;3.87;;;20.80;46.30;;;;;;5083291;28;20184;-62
2022/04/23 13:22:34;;;;;;;4.30;3.90;;;20.00;46.60;;;;;;5083847;28;20338;-62
2022/04/23 13:24:59;;;;;;;5.23;4.13;;;19.60;46.60;;;;;;5084756;28;20222;-62